Time;durP1;ratioP1;P1;durP2;ratioP2;P2;SDS_P1;SDS_P2;PMS_P1;PMS_P2;Temp;Humidity;BMP_temperature;BMP_pressure;BME280_temperature;BME280_humidity;BME280_pressure;Samples;Min_cycle;Max_cycle;Signal;HPM_P1;HPM_P2
2022/12/25 00:01:32;;;;;;;42.37;33.20;;;;;;;5.99;100.00;101420.72;5011841;28;20985;-51
2022/12/25 00:04:01;;;;;;;40.90;33.67;;;;;;;5.99;100.00;101434.81;5011985;28;20448;-52
2022/12/25 00:06:29;;;;;;;38.47;31.83;;;;;;;5.98;100.00;101424.34;5012723;28;20767;-52
2022/12/25 00:08:56;;;;;;;42.50;33.20;;;;;;;5.97;100.00;101442.03;5012459;28;20469;-52
2022/12/25 00:11:24;;;;;;;44.47;33.50;;;;;;;5.98;100.00;101433.13;5012173;28;21140;-49
2022/12/25 00:13:52;;;;;;;47.67;33.13;;;;;;;5.98;100.00;101438.41;5011785;28;20465;-50
2022/12/25 00:16:22;;;;;;;43.33;32.53;;;;;;;5.97;100.00;101431.44;5012131;28;20480;-50
2022/12/25 00:18:50;;;;;;;36.20;32.67;;;;;;;5.99;100.00;101421.56;5012475;28;20910;-50
2022/12/25 00:21:21;;;;;;;39.50;32.47;;;;;;;6.00;100.00;101425.06;5012305;28;20548;-49
2022/12/25 00:23:53;;;;;;;43.63;32.63;;;;;;;6.02;100.00;101423.06;5011653;28;20465;-49
2022/12/25 00:26:22;;;;;;;36.13;32.77;;;;;;;6.02;100.00;101423.91;5012109;28;20421;-48
2022/12/25 00:28:52;;;;;;;41.23;32.67;;;;;;;6.05;100.00;101414.84;5012171;28;20797;-48
2022/12/25 00:31:20;;;;;;;37.00;33.10;;;;;;;6.05;100.00;101415.66;4998370;28;20451;-50
2022/12/25 00:33:50;;;;;;;37.43;33.20;;;;;;;6.09;100.00;101419.66;4997776;28;20462;-52
2022/12/25 00:36:20;;;;;;;37.23;34.00;;;;;;;6.11;100.00;101414.22;5011879;28;20443;-49
2022/12/25 00:38:48;;;;;;;40.83;34.60;;;;;;;6.14;100.00;101408.63;5004081;28;20487;-49
2022/12/25 00:42:17;;;;;;;36.27;32.90;;;;;;;6.15;100.00;101405.00;4996395;28;20454;-50
2022/12/25 00:44:05;;;;;;;35.97;32.50;;;;;;;6.18;100.00;101411.81;4996178;28;20966;-52
2022/12/25 00:46:33;;;;;;;37.83;33.50;;;;;;;6.20;100.00;101421.25;4996506;28;20438;-50
2022/12/25 00:49:01;;;;;;;42.13;34.13;;;;;;;6.21;100.00;101415.00;4996565;28;20461;-50
2022/12/25 00:51:30;;;;;;;37.87;34.03;;;;;;;6.23;100.00;101425.41;4995816;28;20460;-48
2022/12/25 00:53:57;;;;;;;55.20;34.40;;;;;;;6.25;100.00;101436.69;4996007;28;20445;-51
2022/12/25 00:56:25;;;;;;;36.37;32.87;;;;;;;6.26;100.00;101427.75;4996171;28;20433;-53
2022/12/25 00:58:54;;;;;;;36.57;33.47;;;;;;;6.29;100.00;101432.75;4996536;28;20449;-50
2022/12/25 01:01:21;;;;;;;38.50;33.90;;;;;;;6.30;100.00;101421.19;4996052;28;20479;-49
2022/12/25 01:03:49;;;;;;;35.37;31.53;;;;;;;6.32;100.00;101424.50;4995671;28;20493;-51
2022/12/25 01:06:17;;;;;;;41.30;32.60;;;;;;;6.31;100.00;101428.97;4995928;28;20437;-49
2022/12/25 01:11:27;;;;;;;37.77;33.00;;;;;;;6.32;100.00;101424.50;4995218;28;20512;-50
2022/12/25 01:13:55;;;;;;;42.33;33.00;;;;;;;6.31;100.00;101430.78;4996048;28;20434;-48
2022/12/25 01:16:23;;;;;;;36.33;32.40;;;;;;;6.30;100.00;101429.94;4995921;28;20437;-52
2022/12/25 01:18:50;;;;;;;36.87;31.87;;;;;;;6.33;100.00;101431.47;4995789;28;20484;-48
2022/12/25 01:21:19;;;;;;;36.03;32.13;;;;;;;6.34;100.00;101422.53;4995554;28;20465;-48
2022/12/25 01:23:49;;;;;;;37.93;34.17;;;;;;;6.32;100.00;101425.34;4995378;28;20994;-53
2022/12/25 01:26:19;;;;;;;37.20;33.27;;;;;;;6.34;100.00;101428.66;4995490;28;20448;-53
2022/12/25 01:28:46;;;;;;;38.00;34.03;;;;;;;6.33;100.00;101439.44;4995775;28;20441;-51
2022/12/25 01:31:17;;;;;;;36.33;32.50;;;;;;;6.35;100.00;101446.22;4995395;28;20457;-53
2022/12/25 01:33:45;;;;;;;51.40;33.80;;;;;;;6.35;100.00;101437.44;4995100;28;20520;-50
2022/12/25 01:36:15;;;;;;;37.40;33.67;;;;;;;6.35;100.00;101448.88;4995473;28;20430;-53
2022/12/25 01:38:44;;;;;;;37.30;33.47;;;;;;;6.36;100.00;101439.13;5003436;28;20481;-52
2022/12/25 01:41:15;;;;;;;37.10;33.40;;;;;;;6.37;100.00;101448.72;4976019;28;20454;-51
2022/12/25 01:43:58;;;;;;;43.43;34.67;;;;;;;6.38;100.00;101447.75;4975431;28;20470;-52
2022/12/25 01:46:26;;;;;;;38.70;34.70;;;;;;;6.38;100.00;101455.69;4975986;28;20439;-51
2022/12/25 01:48:55;;;;;;;38.47;32.40;;;;;;;6.38;100.00;101450.41;4975983;28;20439;-51
2022/12/25 01:51:28;;;;;;;39.57;33.40;;;;;;;6.37;100.00;101448.72;4974528;28;20976;-48
2022/12/25 01:53:59;;;;;;;37.47;33.90;;;;;;;6.36;100.00;101442.59;4975308;28;20558;-49
2022/12/25 01:56:30;;;;;;;36.60;33.00;;;;;;;6.36;100.00;101439.94;4975602;28;20442;-49
2022/12/25 01:58:59;;;;;;;39.30;32.17;;;;;;;6.36;100.00;101447.06;4975748;28;20478;-50
2022/12/25 02:01:26;;;;;;;39.63;32.57;;;;;;;6.33;100.00;101452.69;4975492;28;20470;-49
2022/12/25 02:04:01;;;;;;;35.07;31.93;;;;;;;6.33;100.00;101461.44;4975267;28;20813;-47
2022/12/25 02:06:29;;;;;;;37.63;34.03;;;;;;;6.31;100.00;101460.75;4975578;28;20442;-48
2022/12/25 02:08:58;;;;;;;38.90;34.70;;;;;;;6.30;100.00;101467.03;4975361;28;20472;-48
2022/12/25 02:14:13;;;;;;;40.33;36.10;;;;;;;6.27;100.00;101474.47;4975076;28;20455;-48
2022/12/25 02:16:44;;;;;;;37.23;33.63;;;;;;;6.27;100.00;101475.31;4975241;28;20442;-50
2022/12/25 02:19:36;;;;;;;40.43;36.20;;;;;;;6.24;100.00;101475.59;4975176;28;20526;-48
2022/12/25 02:22:15;;;;;;;39.80;35.07;;;;;;;6.25;100.00;101474.59;4974955;28;20470;-53
2022/12/25 02:24:57;;;;;;;39.00;35.00;;;;;;;6.27;100.00;101490.38;4975136;28;20439;-49
2022/12/25 02:27:47;;;;;;;38.97;35.23;;;;;;;6.24;100.00;101485.38;4975171;28;20800;-52
2022/12/25 02:30:15;;;;;;;38.27;34.40;;;;;;;6.26;100.00;101489.53;4975303;28;20431;-48
2022/12/25 02:32:50;;;;;;;39.20;35.03;;;;;;;6.28;100.00;101490.19;4974664;28;20478;-50
2022/12/25 02:35:22;;;;;;;40.03;35.90;;;;;;;6.29;100.00;101493.69;4974904;28;20441;-51
2022/12/25 02:37:55;;;;;;;46.30;35.93;;;;;;;6.29;100.00;101483.09;4995284;28;20500;-51
2022/12/25 02:40:27;;;;;;;37.93;33.93;;;;;;;6.31;100.00;101479.31;5007445;28;20838;-49
2022/12/25 03:08:29;;;;;;;55.83;38.40;;;;;;;6.35;100.00;101485.97;5013390;28;20958;-49
2022/12/25 03:13:51;;;;;;;46.00;38.97;;;;;;;6.33;100.00;101477.31;5012771;28;20484;-50
2022/12/25 03:26:53;;;;;;;59.40;41.70;;;;;;;6.34;100.00;101481.66;5013214;28;21132;-48
2022/12/25 03:27:35;;;;;;;61.03;44.00;;;;;;;6.37;100.00;101465.44;5013034;28;20440;-48
2022/12/25 03:33:04;;;;;;;52.57;43.97;;;;;;;6.36;100.00;101460.31;5012536;28;20461;-51
2022/12/25 03:36:02;;;;;;;64.70;47.17;;;;;;;6.37;100.00;101464.63;5012575;28;20458;-49
2022/12/25 04:37:45;;;;;;;63.90;45.77;;;;;;;5.97;100.00;101420.84;5008273;28;20440;-49
2022/12/25 04:40:14;;;;;;;56.17;46.70;;;;;;;5.98;100.00;101413.75;5004499;28;20469;-49
2022/12/25 04:42:42;;;;;;;64.63;46.57;;;;;;;5.96;100.00;101411.28;5011513;28;20471;-50
2022/12/25 04:45:11;;;;;;;67.17;48.30;;;;;;;5.96;100.00;101415.72;5011707;28;20441;-49
2022/12/25 04:47:38;;;;;;;62.77;48.07;;;;;;;5.94;100.00;101407.13;5011889;28;20488;-48
2022/12/25 04:50:07;;;;;;;66.33;48.43;;;;;;;5.92;100.00;101409.06;5012057;28;20429;-50
2022/12/25 04:52:36;;;;;;;66.13;48.53;;;;;;;5.91;100.00;101405.56;5011439;28;20484;-50
2022/12/25 04:55:05;;;;;;;71.17;49.00;;;;;;;5.88;100.00;101391.84;5011703;28;20432;-49
2022/12/25 04:57:34;;;;;;;75.97;46.63;;;;;;;5.89;100.00;101382.88;5011812;28;20450;-50
2022/12/25 05:00:01;;;;;;;94.90;50.77;;;;;;;5.85;100.00;101371.81;5011697;28;20481;-49
2022/12/25 05:02:29;;;;;;;91.47;50.27;;;;;;;5.83;100.00;101379.00;5011225;28;20479;-51
2022/12/25 05:04:57;;;;;;;71.77;46.90;;;;;;;5.80;100.00;101379.31;5011736;28;20799;-48
2022/12/25 05:07:24;;;;;;;105.97;48.07;;;;;;;5.80;100.00;101375.81;5011822;28;20441;-50
2022/12/25 05:09:52;;;;;;;214.03;56.63;;;;;;;5.77;100.00;101371.66;5011788;28;20436;-50
2022/12/25 05:12:20;;;;;;;179.37;56.80;;;;;;;5.76;100.00;101372.66;5011090;28;20527;-49
2022/12/25 05:14:49;;;;;;;149.33;52.10;;;;;;;5.77;100.00;101370.81;5011720;28;20776;-53
2022/12/25 05:17:16;;;;;;;158.37;53.87;;;;;;;5.76;100.00;101366.53;5011626;28;20491;-48
2022/12/25 05:19:44;;;;;;;161.00;54.90;;;;;;;5.78;100.00;101362.75;5011994;28;20477;-46
2022/12/25 05:22:11;;;;;;;122.27;49.87;;;;;;;5.81;100.00;101369.56;5011175;28;20473;-46
2022/12/25 05:24:39;;;;;;;112.10;50.40;;;;;;;5.82;100.00;101374.72;5011919;28;20444;-45
2022/12/25 05:27:07;;;;;;;167.73;55.10;;;;;;;5.84;100.00;101362.16;5015134;28;20467;-48
2022/12/25 05:29:34;;;;;;;190.27;56.33;;;;;;;5.85;100.00;101353.28;5015380;28;20943;-49
2022/12/25 05:32:03;;;;;;;99.37;48.87;;;;;;;5.88;100.00;101355.63;5014730;28;20464;-47
2022/12/25 05:34:31;;;;;;;127.53;52.30;;;;;;;5.91;100.00;101354.47;5015012;28;20795;-48
2022/12/25 05:36:58;;;;;;;126.80;54.03;;;;;;;5.94;100.00;101365.56;5011585;28;20963;-49
2022/12/25 05:39:26;;;;;;;146.90;57.00;;;;;;;5.96;100.00;101350.38;5006672;28;20559;-46
2022/12/25 05:41:54;;;;;;;147.87;58.30;;;;;;;6.00;100.00;101359.66;5015097;28;20465;-45
2022/12/25 05:44:21;;;;;;;136.40;57.90;;;;;;;6.05;100.00;101353.94;5015114;28;20429;-47
2022/12/25 05:46:49;;;;;;;145.83;57.30;;;;;;;6.07;100.00;101358.09;5015010;28;20432;-49
2022/12/25 05:49:18;;;;;;;143.67;56.60;;;;;;;6.11;100.00;101372.69;5015061;28;20429;-45
2022/12/25 05:51:46;;;;;;;150.37;56.93;;;;;;;6.16;100.00;101374.03;5014239;28;20467;-47
2022/12/25 05:54:14;;;;;;;139.87;57.17;;;;;;;6.18;100.00;101364.97;5014507;28;20950;-46
2022/12/25 05:56:41;;;;;;;165.57;61.67;;;;;;;6.21;100.00;101355.91;5014643;28;20444;-47
2022/12/25 05:59:09;;;;;;;179.03;64.30;;;;;;;6.24;100.00;101369.66;5014781;28;20477;-46
2022/12/25 06:01:37;;;;;;;138.93;58.60;;;;;;;6.24;100.00;101355.59;5014155;28;20475;-45
2022/12/25 06:04:05;;;;;;;137.80;56.50;;;;;;;6.25;100.00;101355.41;5014467;28;20444;-47
2022/12/25 06:06:40;;;;;;;162.97;62.77;;;;;;;6.27;100.00;101345.53;5014558;28;20922;-46
2022/12/25 06:09:09;;;;;;;153.83;59.47;;;;;;;6.29;100.00;101340.06;5014508;28;20434;-46
2022/12/25 06:11:37;;;;;;;111.93;57.57;;;;;;;6.30;100.00;101347.84;5014004;28;20457;-49
2022/12/25 06:14:04;;;;;;;163.73;61.70;;;;;;;6.32;100.00;101337.94;5014268;28;20533;-49
2022/12/25 06:16:32;;;;;;;158.97;60.27;;;;;;;6.31;100.00;101338.91;5014369;28;20437;-47
2022/12/25 06:19:05;;;;;;;140.37;57.50;;;;;;;6.31;100.00;101344.22;5014176;28;20472;-47
2022/12/25 06:21:32;;;;;;;131.27;55.40;;;;;;;6.31;100.00;101341.56;5013897;28;20489;-48
2022/12/25 06:24:02;;;;;;;119.83;58.63;;;;;;;6.31;100.00;101340.72;5014102;28;20443;-50
2022/12/25 06:26:30;;;;;;;131.53;64.00;;;;;;;6.32;100.00;101343.22;5014486;28;20421;-50
2022/12/25 06:28:57;;;;;;;119.33;60.70;;;;;;;6.30;100.00;101336.44;5014167;28;20437;-49
2022/12/25 06:31:25;;;;;;;119.40;58.30;;;;;;;6.31;100.00;101346.03;5013984;28;20504;-48
2022/12/25 06:33:53;;;;;;;127.27;59.30;;;;;;;6.31;100.00;101344.22;5013972;28;20965;-47
2022/12/25 06:36:22;;;;;;;119.27;56.23;;;;;;;6.32;100.00;101339.75;5013051;28;20444;-48
2022/12/25 06:38:50;;;;;;;125.23;57.57;;;;;;;6.30;100.00;101337.25;5003188;28;20437;-46
2022/12/25 06:41:21;;;;;;;119.03;57.10;;;;;;;6.30;100.00;101337.25;5013778;28;20480;-48
2022/12/25 06:43:49;;;;;;;144.73;59.20;;;;;;;6.30;100.00;101342.53;5013368;28;20457;-50
2022/12/25 06:46:17;;;;;;;117.67;60.17;;;;;;;6.30;100.00;101337.25;5013608;28;20433;-50
2022/12/25 06:48:48;;;;;;;108.50;60.70;;;;;;;6.32;100.00;101347.69;5013656;28;20970;-51
2022/12/25 06:51:17;;;;;;;117.00;58.90;;;;;;;6.33;100.00;101346.72;5013711;28;20445;-47
2022/12/25 06:53:44;;;;;;;123.97;56.43;;;;;;;6.32;100.00;101353.00;5013099;28;20468;-45
2022/12/25 06:56:14;;;;;;;143.90;59.77;;;;;;;6.33;100.00;101357.31;5013437;28;20799;-47
2022/12/25 06:58:44;;;;;;;113.53;56.97;;;;;;;6.33;100.00;101354.66;5013537;28;20775;-46
2022/12/25 07:01:16;;;;;;;105.80;59.57;;;;;;;6.34;100.00;101358.97;5013386;28;20560;-48
2022/12/25 07:03:46;;;;;;;113.67;57.20;;;;;;;6.36;100.00;101357.81;5012725;28;20475;-46
2022/12/25 07:06:13;;;;;;;128.47;59.20;;;;;;;6.36;100.00;101359.66;5013162;28;20437;-47
2022/12/25 07:08:41;;;;;;;118.67;58.73;;;;;;;6.38;100.00;101365.63;5013242;28;20433;-50
2022/12/25 07:11:09;;;;;;;110.57;58.13;;;;;;;6.35;100.00;101369.41;5013291;28;20456;-45
2022/12/25 07:13:36;;;;;;;91.40;58.33;;;;;;;6.37;100.00;101370.09;5012631;28;20523;-46
2022/12/25 07:16:06;;;;;;;115.37;62.87;;;;;;;6.38;100.00;101365.63;5013049;28;20429;-47
2022/12/25 07:18:34;;;;;;;122.57;63.40;;;;;;;6.40;100.00;101366.28;5013126;28;20791;-49
2022/12/25 07:21:06;;;;;;;116.13;61.70;;;;;;;6.40;100.00;101368.94;5012903;28;20978;-46
2022/12/25 07:23:33;;;;;;;117.80;63.27;;;;;;;6.39;100.00;101365.44;5012334;28;20473;-45
2022/12/25 07:26:02;;;;;;;122.40;62.90;;;;;;;6.40;100.00;101375.06;5013019;28;20440;-46
2022/12/25 07:28:30;;;;;;;137.63;63.43;;;;;;;6.38;100.00;101365.63;5012960;28;20441;-50
2022/12/25 07:31:01;;;;;;;97.87;57.87;;;;;;;6.39;100.00;101373.41;5012861;28;20533;-46
2022/12/25 07:33:31;;;;;;;98.50;59.97;;;;;;;6.38;100.00;101379.69;5012431;28;20471;-45
2022/12/25 07:35:58;;;;;;;100.77;58.43;;;;;;;6.40;100.00;101384.84;5011400;28;20447;-47
2022/12/25 07:38:26;;;;;;;100.13;59.97;;;;;;;6.40;100.00;101379.53;5003210;28;20965;-47
2022/12/25 07:40:54;;;;;;;95.50;55.80;;;;;;;6.40;100.00;101382.19;5010540;28;20476;-52
2022/12/25 07:43:22;;;;;;;132.70;64.30;;;;;;;6.41;100.00;101366.16;5012199;28;20484;-46
2022/12/25 07:45:54;;;;;;;111.97;62.00;;;;;;;6.42;100.00;101367.00;5010979;28;20437;-48
2022/12/25 07:48:22;;;;;;;111.90;61.73;;;;;;;6.42;100.00;101359.84;4983034;28;20451;-49
2022/12/25 07:50:57;;;;;;;120.13;59.10;;;;;;;6.44;100.00;101357.06;4991901;28;20449;-48
2022/12/25 07:53:24;;;;;;;103.53;60.73;;;;;;;6.45;100.00;101366.69;5006531;28;20477;-49
2022/12/25 07:55:59;;;;;;;111.63;63.93;;;;;;;6.42;100.00;101357.19;4991399;28;20835;-45
2022/12/25 07:58:27;;;;;;;101.63;59.80;;;;;;;6.44;100.00;101362.34;4991343;28;20957;-47
2022/12/25 08:00:55;;;;;;;97.43;56.70;;;;;;;6.46;100.00;101363.03;5008038;28;20850;-50
2022/12/25 08:03:23;;;;;;;99.40;56.97;;;;;;;6.47;100.00;101367.34;5003493;28;20868;-50
2022/12/25 08:05:51;;;;;;;94.07;56.37;;;;;;;6.47;100.00;101364.69;4990400;28;20433;-52
2022/12/25 08:08:20;;;;;;;100.97;56.73;;;;;;;6.48;100.00;101363.72;4989046;28;20799;-49
2022/12/25 08:10:47;;;;;;;95.03;56.70;;;;;;;6.49;100.00;101362.72;4994532;28;20449;-51
2022/12/25 08:13:15;;;;;;;79.00;54.60;;;;;;;6.53;100.00;101358.78;5009877;28;20473;-48
2022/12/25 08:15:43;;;;;;;82.40;52.87;;;;;;;6.55;100.00;101346.19;5010613;28;20443;-47
2022/12/25 08:18:10;;;;;;;98.60;58.30;;;;;;;6.56;100.00;101343.41;5010454;28;20441;-45
2022/12/25 08:20:38;;;;;;;72.67;54.80;;;;;;;6.59;100.00;101347.56;5008727;28;20543;-48
2022/12/25 08:23:06;;;;;;;83.23;54.17;;;;;;;6.61;100.00;101338.47;5009118;28;20469;-47
2022/12/25 08:25:35;;;;;;;87.50;55.40;;;;;;;6.64;100.00;101345.25;5007553;28;20803;-50
2022/12/25 08:28:02;;;;;;;89.10;55.47;;;;;;;6.65;100.00;101352.22;5007786;28;20507;-47
2022/12/25 08:30:30;;;;;;;85.80;55.70;;;;;;;6.67;100.00;101350.25;5007722;28;20455;-51
2022/12/25 08:32:58;;;;;;;77.37;55.10;;;;;;;6.67;100.00;101348.44;5004861;28;20501;-55
2022/12/25 08:35:26;;;;;;;81.60;55.37;;;;;;;6.65;100.00;101345.13;5006109;28;20429;-50
2022/12/25 08:37:53;;;;;;;80.30;54.57;;;;;;;6.68;100.00;101336.03;5001282;28;20939;-45
2022/12/25 08:40:21;;;;;;;87.33;56.97;;;;;;;6.69;100.00;101338.50;4998440;28;20495;-48
2022/12/25 08:42:50;;;;;;;99.90;54.43;;;;;;;6.71;100.00;101345.47;5004855;28;20464;-46
2022/12/25 08:45:17;;;;;;;86.07;52.33;;;;;;;6.74;100.00;101347.81;5007383;28;20524;-49
2022/12/25 08:47:45;;;;;;;77.60;54.80;;;;;;;6.75;100.00;101342.34;5004616;28;20444;-46
2022/12/25 08:50:13;;;;;;;82.80;52.97;;;;;;;6.78;100.00;101352.63;5005581;28;20445;-46
2022/12/25 08:52:40;;;;;;;83.63;55.30;;;;;;;6.79;100.00;101346.34;5004010;28;20484;-46
2022/12/25 08:55:08;;;;;;;72.90;53.10;;;;;;;6.81;100.00;101349.66;4984758;28;20970;-49
2022/12/25 08:57:36;;;;;;;78.13;50.77;;;;;;;6.85;100.00;101353.66;4984009;28;20900;-48
2022/12/25 09:00:07;;;;;;;73.50;52.13;;;;;;;6.86;100.00;101349.19;4986595;28;20442;-45
2022/12/25 09:02:34;;;;;;;74.50;50.53;;;;;;;6.88;100.00;101349.88;4990287;28;20485;-50
2022/12/25 09:05:02;;;;;;;64.17;49.43;;;;;;;6.87;100.00;101349.03;4989735;28;20437;-48
2022/12/25 09:07:30;;;;;;;76.80;48.50;;;;;;;6.89;100.00;101356.84;4990801;28;20947;-49
2022/12/25 09:09:57;;;;;;;54.40;48.53;;;;;;;6.89;100.00;101362.16;4992124;28;20442;-49
2022/12/25 09:12:25;;;;;;;65.60;48.83;;;;;;;6.92;100.00;101367.97;5009823;28;20473;-51
2022/12/25 09:14:53;;;;;;;61.53;47.70;;;;;;;6.92;100.00;101370.63;4994815;28;20441;-51
2022/12/25 09:17:22;;;;;;;67.57;48.03;;;;;;;6.92;100.00;101370.63;4992245;28;20453;-48
2022/12/25 09:19:49;;;;;;;67.47;49.90;;;;;;;6.94;100.00;101373.94;4992360;28;20437;-47
2022/12/25 09:22:18;;;;;;;56.60;47.33;;;;;;;6.95;100.00;101372.97;4989139;28;20473;-52
2022/12/25 09:24:45;;;;;;;64.63;49.17;;;;;;;6.97;100.00;101363.00;5005358;28;20448;-46
2022/12/25 09:27:13;;;;;;;57.63;47.93;;;;;;;6.98;100.00;101369.16;5008271;28;20436;-49
2022/12/25 09:29:41;;;;;;;55.80;44.60;;;;;;;6.99;100.00;101374.28;5007829;28;20432;-49
2022/12/25 09:32:08;;;;;;;59.67;46.97;;;;;;;7.00;100.00;101369.81;5010436;28;20473;-47
2022/12/25 09:34:37;;;;;;;50.67;45.03;;;;;;;7.01;100.00;101371.50;5009373;28;20437;-45
2022/12/25 09:37:05;;;;;;;56.53;47.43;;;;;;;7.00;100.00;101368.00;5006331;28;20938;-54
2022/12/25 09:39:32;;;;;;;57.23;45.30;;;;;;;6.99;100.00;101376.94;5002773;28;20433;-46
2022/12/25 09:42:05;;;;;;;54.10;45.50;;;;;;;7.01;100.00;101374.97;4988116;28;20524;-46
2022/12/25 09:44:37;;;;;;;65.73;46.80;;;;;;;7.04;100.00;101353.44;4988650;28;20433;-48
2022/12/25 09:47:10;;;;;;;60.47;45.30;;;;;;;7.09;100.00;101363.56;4969100;28;21234;-46
2022/12/25 09:49:45;;;;;;;59.37;43.60;;;;;;;7.12;100.00;101361.44;4969125;28;20944;-47
2022/12/25 09:52:16;;;;;;;48.63;43.60;;;;;;;7.15;100.00;101357.63;4969400;28;20844;-48
2022/12/25 09:54:51;;;;;;;53.77;44.13;;;;;;;7.19;100.00;101346.56;4997037;28;20846;-49
2022/12/25 09:57:19;;;;;;;49.13;43.83;;;;;;;7.19;100.00;101362.47;5006929;28;20447;-54
2022/12/25 09:59:46;;;;;;;49.27;41.37;;;;;;;7.22;100.00;101359.50;5007508;28;20700;-47
2022/12/25 10:02:36;;;;;;;52.73;44.20;;;;;;;7.28;100.00;101362.50;5008005;28;20468;-49
2022/12/25 10:05:20;;;;;;;54.43;41.80;;;;;;;7.31;100.00;101362.16;5006802;28;20525;-49
2022/12/25 10:08:00;;;;;;;58.70;45.03;;;;;;;7.34;100.00;101357.38;5008320;28;20915;-48
2022/12/25 10:10:46;;;;;;;48.57;42.67;;;;;;;7.39;100.00;101362.19;4985171;28;21009;-54
2022/12/25 10:13:28;;;;;;;51.00;42.33;;;;;;;7.40;100.00;101347.94;5006669;28;21372;-53
2022/12/25 10:16:07;;;;;;;56.33;42.23;;;;;;;7.40;100.00;101342.63;5007403;28;20436;-49
2022/12/25 10:18:47;;;;;;;56.27;44.50;;;;;;;7.43;100.00;101340.50;5006182;28;20547;-54
2022/12/25 10:21:18;;;;;;;46.00;41.13;;;;;;;7.45;100.00;101335.84;5007292;28;20472;-53
2022/12/25 10:23:49;;;;;;;47.50;42.40;;;;;;;7.46;100.00;101328.72;5007338;28;20444;-46
2022/12/25 10:26:19;;;;;;;52.57;42.57;;;;;;;7.49;100.00;101326.59;5007570;28;20445;-49
2022/12/25 10:28:53;;;;;;;58.23;43.00;;;;;;;7.55;100.00;101327.75;4998388;28;20446;-50
2022/12/25 10:31:23;;;;;;;49.37;42.10;;;;;;;7.59;100.00;101326.41;4996427;28;20459;-49
2022/12/25 10:33:52;;;;;;;52.23;44.03;;;;;;;7.62;100.00;101318.97;5007269;28;20433;-49
2022/12/25 10:36:24;;;;;;;53.80;44.07;;;;;;;7.62;100.00;101296.88;5006436;28;20441;-51
2022/12/25 10:38:52;;;;;;;53.87;42.93;;;;;;;7.65;100.00;101296.56;4995886;28;20429;-48
2022/12/25 10:41:37;;;;;;;49.47;42.87;;;;;;;7.66;100.00;101295.56;5007871;28;20519;-46
2022/12/25 10:44:13;;;;;;;49.80;42.60;;;;;;;7.71;100.00;101295.91;5009859;28;20780;-47
2022/12/25 10:46:47;;;;;;;60.13;43.00;;;;;;;7.71;100.00;101291.44;5006219;28;20470;-51
2022/12/25 10:49:17;;;;;;;68.80;43.57;;;;;;;7.72;100.00;101301.06;4995760;28;20458;-47
2022/12/25 10:51:46;;;;;;;50.80;43.37;;;;;;;7.76;100.00;101307.69;4986458;28;20524;-48
2022/12/25 10:54:23;;;;;;;57.63;43.23;;;;;;;7.76;100.00;101306.88;4986728;28;20451;-46
2022/12/25 10:56:55;;;;;;;56.20;45.70;;;;;;;7.76;100.00;101306.88;4990066;28;20947;-45
2022/12/25 10:59:24;;;;;;;54.47;43.93;;;;;;;7.77;100.00;101303.22;4992203;28;20466;-46
2022/12/25 11:01:51;;;;;;;67.30;43.20;;;;;;;7.78;100.00;101299.56;4989549;28;20492;-46
2022/12/25 11:04:25;;;;;;;61.23;45.43;;;;;;;7.79;100.00;101296.75;4989075;28;20532;-51
2022/12/25 11:07:01;;;;;;;57.83;45.07;;;;;;;7.76;100.00;101297.06;4989019;28;20434;-56
2022/12/25 11:09:29;;;;;;;50.30;44.80;;;;;;;7.77;100.00;101288.13;4993588;28;20457;-46
2022/12/25 11:11:57;;;;;;;54.00;46.37;;;;;;;7.77;100.00;101292.59;5009245;28;20457;-47
2022/12/25 11:14:26;;;;;;;57.07;42.97;;;;;;;7.78;100.00;101294.25;5009582;28;20441;-48
2022/12/25 11:16:54;;;;;;;64.83;44.23;;;;;;;7.78;100.00;101291.59;5009516;28;20985;-47
2022/12/25 11:19:28;;;;;;;53.10;45.27;;;;;;;7.78;100.00;101288.94;5008612;28;21210;-48
2022/12/25 11:21:59;;;;;;;60.30;44.40;;;;;;;7.77;100.00;101287.28;5008800;28;20485;-45
2022/12/25 11:24:28;;;;;;;59.80;45.53;;;;;;;7.78;100.00;101281.00;4998058;28;20570;-47
2022/12/25 11:26:58;;;;;;;68.23;42.87;;;;;;;7.79;100.00;101270.19;4989224;28;20504;-45
2022/12/25 11:29:35;;;;;;;60.90;43.40;;;;;;;7.77;100.00;101277.50;4988693;28;20458;-46
2022/12/25 11:32:04;;;;;;;49.90;43.80;;;;;;;7.80;100.00;101269.19;4992161;28;20508;-49
2022/12/25 11:34:40;;;;;;;47.40;42.30;;;;;;;7.83;100.00;101273.34;4988651;28;20449;-48
2022/12/25 11:37:14;;;;;;;62.47;45.80;;;;;;;7.84;100.00;101276.84;4991727;28;20433;-46
2022/12/25 11:39:42;;;;;;;56.53;44.63;;;;;;;7.85;100.00;101273.19;4987056;28;20534;-50
2022/12/25 11:42:17;;;;;;;47.93;42.80;;;;;;;7.84;100.00;101272.38;4994526;28;20615;-49
2022/12/25 11:44:50;;;;;;;60.40;47.97;;;;;;;7.82;100.00;101269.06;4986908;28;20434;-50
2022/12/25 11:47:24;;;;;;;57.80;44.80;;;;;;;7.84;100.00;101268.88;4985817;28;20804;-45
2022/12/25 11:49:57;;;;;;;57.80;45.37;;;;;;;7.82;100.00;101269.06;4986305;28;20466;-47
2022/12/25 11:52:33;;;;;;;56.73;45.77;;;;;;;7.84;100.00;101271.53;4986184;28;21066;-53
2022/12/25 11:55:07;;;;;;;49.50;44.20;;;;;;;7.88;100.00;101281.66;4988326;28;20445;-49
2022/12/25 11:57:36;;;;;;;58.03;44.27;;;;;;;7.88;100.00;101284.31;4987587;28;20457;-50
2022/12/25 12:00:08;;;;;;;58.23;43.30;;;;;;;7.91;100.00;101278.69;4991398;28;20481;-45
2022/12/25 12:02:42;;;;;;;57.77;44.60;;;;;;;7.93;100.00;101275.84;4989118;28;20857;-46
2022/12/25 12:05:18;;;;;;;54.67;43.30;;;;;;;7.90;100.00;101270.88;4990017;28;20433;-45
2022/12/25 12:08:00;;;;;;;52.60;43.07;;;;;;;7.92;100.00;101268.88;4987453;28;20492;-50
2022/12/25 12:10:39;;;;;;;47.57;42.73;;;;;;;7.90;100.00;101268.22;4989379;28;20469;-46
2022/12/25 12:13:20;;;;;;;65.73;43.80;;;;;;;7.89;100.00;101262.06;4990391;28;20504;-46
2022/12/25 12:15:50;;;;;;;66.33;44.60;;;;;;;7.92;100.00;101279.47;4989545;28;20438;-48
2022/12/25 12:18:21;;;;;;;54.43;44.50;;;;;;;7.94;100.00;101273.03;4992827;28;20438;-45
2022/12/25 12:21:00;;;;;;;54.97;44.77;;;;;;;7.93;100.00;101267.88;4991971;28;20999;-45
2022/12/25 12:23:31;;;;;;;58.93;46.37;;;;;;;7.95;100.00;101279.16;4992385;28;20477;-49
2022/12/25 12:25:59;;;;;;;57.63;45.30;;;;;;;7.93;100.00;101276.69;4992423;28;20465;-47
2022/12/25 12:28:29;;;;;;;49.87;42.77;;;;;;;7.94;100.00;101274.84;4992508;28;20809;-48
2022/12/25 12:31:00;;;;;;;46.73;42.23;;;;;;;7.95;100.00;101272.03;4991298;28;20470;-45
2022/12/25 12:33:34;;;;;;;54.90;43.77;;;;;;;7.95;100.00;101265.88;4992365;28;20427;-45
2022/12/25 12:36:05;;;;;;;54.00;45.23;;;;;;;7.93;100.00;101266.06;4991570;28;20851;-50
2022/12/25 12:38:35;;;;;;;48.40;41.20;;;;;;;7.94;100.00;101266.88;5000428;28;20505;-48
2022/12/25 12:41:04;;;;;;;52.87;42.60;;;;;;;7.96;100.00;101263.06;5010365;28;20461;-47
2022/12/25 12:43:36;;;;;;;54.90;42.70;;;;;;;7.96;100.00;101264.88;5011716;28;20472;-45
2022/12/25 12:46:14;;;;;;;48.73;41.30;;;;;;;7.95;100.00;101261.41;5011205;28;20584;-48
2022/12/25 12:48:44;;;;;;;54.00;43.03;;;;;;;7.93;100.00;101258.09;5011331;28;20838;-45
2022/12/25 12:51:13;;;;;;;65.07;43.27;;;;;;;7.93;100.00;101255.44;5011903;28;20492;-45
2022/12/25 12:53:43;;;;;;;53.47;43.00;;;;;;;7.94;100.00;101250.97;5011752;28;20436;-45
2022/12/25 12:56:13;;;;;;;51.20;43.27;;;;;;;7.94;100.00;101240.34;5011745;28;20425;-45
2022/12/25 12:58:48;;;;;;;47.83;41.90;;;;;;;7.91;100.00;101236.19;5010979;28;20851;-46
2022/12/25 13:01:37;;;;;;;54.13;43.00;;;;;;;7.94;100.00;101229.72;5011451;28;20548;-47
2022/12/25 13:04:31;;;;;;;63.73;42.90;;;;;;;7.92;100.00;101229.88;5011359;28;21032;-47
2022/12/25 13:07:14;;;;;;;54.13;44.60;;;;;;;7.89;100.00;101227.53;5011685;28;20436;-47